sensor_id;sensor_type;location;lat;lon;timestamp;P1;durP1;ratioP1;P2;durP2;ratioP2
68225;SDS011;55045;49.410;11.030;2023-09-30T00:02:16;12.90;;;4.13;;
68225;SDS011;55045;49.410;11.030;2023-09-30T00:05:20;12.13;;;4.43;;
68225;SDS011;55045;49.410;11.030;2023-09-30T00:08:25;8.57;;;3.65;;
68225;SDS011;55045;49.410;11.030;2023-09-30T00:11:29;9.07;;;3.70;;
68225;SDS011;55045;49.410;11.030;2023-09-30T00:14:32;7.53;;;3.65;;
68225;SDS011;55045;49.410;11.030;2023-09-30T00:17:36;6.68;;;3.40;;
68225;SDS011;55045;49.410;11.030;2023-09-30T00:20:40;9.93;;;4.53;;
68225;SDS011;55045;49.410;11.030;2023-09-30T00:23:44;10.68;;;3.75;;
68225;SDS011;55045;49.410;11.030;2023-09-30T00:26:48;9.82;;;3.75;;
68225;SDS011;55045;49.410;11.030;2023-09-30T00:29:52;9.80;;;3.80;;
68225;SDS011;55045;49.410;11.030;2023-09-30T00:32:56;10.90;;;4.07;;
68225;SDS011;55045;49.410;11.030;2023-09-30T00:36:00;6.70;;;3.58;;
68225;SDS011;55045;49.410;11.030;2023-09-30T00:39:10;7.95;;;4.00;;
68225;SDS011;55045;49.410;11.030;2023-09-30T00:42:13;8.13;;;3.88;;
68225;SDS011;55045;49.410;11.030;2023-09-30T00:45:17;7.93;;;3.80;;
68225;SDS011;55045;49.410;11.030;2023-09-30T00:48:22;6.55;;;3.33;;
68225;SDS011;55045;49.410;11.030;2023-09-30T00:51:26;9.48;;;3.92;;
68225;SDS011;55045;49.410;11.030;2023-09-30T00:54:31;7.30;;;3.75;;
68225;SDS011;55045;49.410;11.030;2023-09-30T00:57:35;9.48;;;3.80;;
68225;SDS011;55045;49.410;11.030;2023-09-30T01:00:40;9.32;;;4.18;;
68225;SDS011;55045;49.410;11.030;2023-09-30T01:03:45;9.25;;;4.00;;
68225;SDS011;55045;49.410;11.030;2023-09-30T01:06:48;9.77;;;4.03;;
68225;SDS011;55045;49.410;11.030;2023-09-30T01:09:53;8.55;;;4.00;;
68225;SDS011;55045;49.410;11.030;2023-09-30T01:12:56;9.80;;;4.20;;
68225;SDS011;55045;49.410;11.030;2023-09-30T01:16:02;7.78;;;3.78;;
68225;SDS011;55045;49.410;11.030;2023-09-30T01:19:06;11.38;;;4.00;;
68225;SDS011;55045;49.410;11.030;2023-09-30T01:22:11;9.20;;;4.28;;
68225;SDS011;55045;49.410;11.030;2023-09-30T01:25:15;8.27;;;3.58;;
68225;SDS011;55045;49.410;11.030;2023-09-30T01:28:18;8.43;;;3.80;;
68225;SDS011;55045;49.410;11.030;2023-09-30T01:31:22;10.25;;;4.15;;
68225;SDS011;55045;49.410;11.030;2023-09-30T01:34:25;9.25;;;3.70;;
68225;SDS011;55045;49.410;11.030;2023-09-30T01:37:29;9.00;;;4.13;;
68225;SDS011;55045;49.410;11.030;2023-09-30T01:40:33;10.57;;;4.10;;
68225;SDS011;55045;49.410;11.030;2023-09-30T01:43:36;8.98;;;3.83;;
68225;SDS011;55045;49.410;11.030;2023-09-30T01:46:39;8.57;;;4.25;;
68225;SDS011;55045;49.410;11.030;2023-09-30T01:49:42;8.52;;;3.60;;
68225;SDS011;55045;49.410;11.030;2023-09-30T01:52:47;8.00;;;3.75;;
68225;SDS011;55045;49.410;11.030;2023-09-30T01:55:51;10.85;;;4.43;;
68225;SDS011;55045;49.410;11.030;2023-09-30T01:58:54;8.30;;;4.38;;
68225;SDS011;55045;49.410;11.030;2023-09-30T02:01:57;8.18;;;3.88;;
68225;SDS011;55045;49.410;11.030;2023-09-30T02:05:00;11.48;;;4.28;;
68225;SDS011;55045;49.410;11.030;2023-09-30T02:08:06;10.00;;;3.85;;
68225;SDS011;55045;49.410;11.030;2023-09-30T02:11:09;8.45;;;3.97;;
68225;SDS011;55045;49.410;11.030;2023-09-30T02:14:12;8.48;;;3.97;;
68225;SDS011;55045;49.410;11.030;2023-09-30T02:17:19;9.05;;;4.32;;
68225;SDS011;55045;49.410;11.030;2023-09-30T02:20:22;10.23;;;4.95;;
68225;SDS011;55045;49.410;11.030;2023-09-30T02:23:29;10.05;;;4.30;;
68225;SDS011;55045;49.410;11.030;2023-09-30T02:26:32;9.10;;;4.20;;
68225;SDS011;55045;49.410;11.030;2023-09-30T02:29:35;10.98;;;4.65;;
68225;SDS011;55045;49.410;11.030;2023-09-30T02:32:39;8.80;;;4.30;;
68225;SDS011;55045;49.410;11.030;2023-09-30T02:35:43;9.35;;;3.67;;
68225;SDS011;55045;49.410;11.030;2023-09-30T02:38:50;7.95;;;3.58;;
68225;SDS011;55045;49.410;11.030;2023-09-30T02:41:53;8.05;;;4.53;;
68225;SDS011;55045;49.410;11.030;2023-09-30T02:44:59;7.72;;;3.78;;
68225;SDS011;55045;49.410;11.030;2023-09-30T02:48:03;12.45;;;4.13;;
68225;SDS011;55045;49.410;11.030;2023-09-30T02:51:09;6.18;;;3.88;;
68225;SDS011;55045;49.410;11.030;2023-09-30T02:54:16;6.38;;;3.17;;
68225;SDS011;55045;49.410;11.030;2023-09-30T02:57:19;7.05;;;3.28;;
68225;SDS011;55045;49.410;11.030;2023-09-30T03:00:22;6.15;;;3.05;;
68225;SDS011;55045;49.410;11.030;2023-09-30T03:03:27;4.75;;;2.63;;
68225;SDS011;55045;49.410;11.030;2023-09-30T03:06:30;2.53;;;2.00;;
68225;SDS011;55045;49.410;11.030;2023-09-30T03:09:36;2.53;;;1.98;;
68225;SDS011;55045;49.410;11.030;2023-09-30T03:12:39;2.70;;;1.90;;
68225;SDS011;55045;49.410;11.030;2023-09-30T03:15:42;2.80;;;2.22;;
68225;SDS011;55045;49.410;11.030;2023-09-30T03:18:45;2.28;;;2.08;;
68225;SDS011;55045;49.410;11.030;2023-09-30T03:21:49;4.13;;;2.10;;
68225;SDS011;55045;49.410;11.030;2023-09-30T03:24:54;2.45;;;2.22;;
68225;SDS011;55045;49.410;11.030;2023-09-30T03:27:58;3.60;;;2.58;;
68225;SDS011;55045;49.410;11.030;2023-09-30T03:34:09;4.38;;;3.05;;
68225;SDS011;55045;49.410;11.030;2023-09-30T03:37:13;6.22;;;3.67;;
68225;SDS011;55045;49.410;11.030;2023-09-30T03:40:16;6.43;;;3.78;;
68225;SDS011;55045;49.410;11.030;2023-09-30T03:43:22;5.35;;;2.92;;
68225;SDS011;55045;49.410;11.030;2023-09-30T03:46:26;8.70;;;3.58;;
68225;SDS011;55045;49.410;11.030;2023-09-30T03:49:31;7.07;;;3.20;;
68225;SDS011;55045;49.410;11.030;2023-09-30T03:52:34;7.55;;;3.13;;
68225;SDS011;55045;49.410;11.030;2023-09-30T03:55:37;7.88;;;3.40;;
68225;SDS011;55045;49.410;11.030;2023-09-30T03:58:40;7.88;;;3.58;;
68225;SDS011;55045;49.410;11.030;2023-09-30T04:01:44;5.53;;;3.33;;
68225;SDS011;55045;49.410;11.030;2023-09-30T04:04:50;5.90;;;2.88;;
68225;SDS011;55045;49.410;11.030;2023-09-30T04:07:55;4.97;;;3.08;;
68225;SDS011;55045;49.410;11.030;2023-09-30T04:10:59;4.88;;;3.00;;
68225;SDS011;55045;49.410;11.030;2023-09-30T04:14:03;9.73;;;3.92;;
68225;SDS011;55045;49.410;11.030;2023-09-30T04:17:07;5.32;;;3.08;;
68225;SDS011;55045;49.410;11.030;2023-09-30T04:20:12;7.00;;;3.28;;
68225;SDS011;55045;49.410;11.030;2023-09-30T04:23:25;5.07;;;2.88;;
68225;SDS011;55045;49.410;11.030;2023-09-30T04:26:29;8.75;;;3.47;;
68225;SDS011;55045;49.410;11.030;2023-09-30T04:29:32;6.40;;;3.40;;
68225;SDS011;55045;49.410;11.030;2023-09-30T04:32:36;7.68;;;3.22;;
68225;SDS011;55045;49.410;11.030;2023-09-30T04:35:41;8.05;;;3.47;;
68225;SDS011;55045;49.410;11.030;2023-09-30T04:38:45;9.63;;;3.70;;
68225;SDS011;55045;49.410;11.030;2023-09-30T04:41:49;7.68;;;3.35;;
68225;SDS011;55045;49.410;11.030;2023-09-30T04:44:52;6.07;;;3.33;;
68225;SDS011;55045;49.410;11.030;2023-09-30T04:47:55;6.32;;;3.33;;
68225;SDS011;55045;49.410;11.030;2023-09-30T04:51:00;6.57;;;3.45;;
68225;SDS011;55045;49.410;11.030;2023-09-30T04:54:06;6.65;;;3.20;;
68225;SDS011;55045;49.410;11.030;2023-09-30T04:57:10;6.28;;;3.20;;
68225;SDS011;55045;49.410;11.030;2023-09-30T05:00:13;6.85;;;3.40;;
68225;SDS011;55045;49.410;11.030;2023-09-30T05:03:18;7.53;;;3.00;;
68225;SDS011;55045;49.410;11.030;2023-09-30T05:06:23;8.10;;;4.00;;
68225;SDS011;55045;49.410;11.030;2023-09-30T05:09:27;7.95;;;3.65;;
68225;SDS011;55045;49.410;11.030;2023-09-30T05:12:30;9.02;;;3.88;;
68225;SDS011;55045;49.410;11.030;2023-09-30T05:15:34;8.77;;;3.75;;
68225;SDS011;55045;49.410;11.030;2023-09-30T05:18:38;6.75;;;4.00;;
68225;SDS011;55045;49.410;11.030;2023-09-30T05:21:43;7.53;;;4.30;;
68225;SDS011;55045;49.410;11.030;2023-09-30T05:24:47;7.10;;;3.80;;
68225;SDS011;55045;49.410;11.030;2023-09-30T05:27:50;8.07;;;4.00;;
68225;SDS011;55045;49.410;11.030;2023-09-30T05:30:53;8.43;;;4.10;;
68225;SDS011;55045;49.410;11.030;2023-09-30T05:33:57;7.65;;;3.70;;
68225;SDS011;55045;49.410;11.030;2023-09-30T05:37:02;7.20;;;4.55;;
68225;SDS011;55045;49.410;11.030;2023-09-30T05:40:06;8.07;;;4.05;;
68225;SDS011;55045;49.410;11.030;2023-09-30T05:43:19;7.53;;;4.22;;
68225;SDS011;55045;49.410;11.030;2023-09-30T05:46:23;10.20;;;4.72;;
68225;SDS011;55045;49.410;11.030;2023-09-30T05:49:26;7.97;;;4.22;;
68225;SDS011;55045;49.410;11.030;2023-09-30T05:52:31;11.27;;;4.53;;
68225;SDS011;55045;49.410;11.030;2023-09-30T05:55:35;11.75;;;4.88;;
68225;SDS011;55045;49.410;11.030;2023-09-30T05:58:38;8.15;;;4.68;;
68225;SDS011;55045;49.410;11.030;2023-09-30T06:01:42;9.18;;;5.07;;
68225;SDS011;55045;49.410;11.030;2023-09-30T06:04:48;9.98;;;4.82;;
68225;SDS011;55045;49.410;11.030;2023-09-30T06:07:54;9.40;;;5.20;;
68225;SDS011;55045;49.410;11.030;2023-09-30T06:10:57;8.95;;;4.88;;
68225;SDS011;55045;49.410;11.030;2023-09-30T06:14:00;7.32;;;4.72;;
68225;SDS011;55045;49.410;11.030;2023-09-30T06:17:08;7.18;;;4.60;;
68225;SDS011;55045;49.410;11.030;2023-09-30T06:20:11;6.65;;;4.60;;
68225;SDS011;55045;49.410;11.030;2023-09-30T06:23:21;5.43;;;3.63;;
68225;SDS011;55045;49.410;11.030;2023-09-30T06:26:24;10.43;;;5.18;;
68225;SDS011;55045;49.410;11.030;2023-09-30T06:29:30;9.18;;;4.65;;
68225;SDS011;55045;49.410;11.030;2023-09-30T06:32:35;8.27;;;4.80;;
68225;SDS011;55045;49.410;11.030;2023-09-30T06:35:40;6.35;;;3.83;;
68225;SDS011;55045;49.410;11.030;2023-09-30T06:38:53;6.95;;;4.22;;
68225;SDS011;55045;49.410;11.030;2023-09-30T06:41:57;8.82;;;4.90;;
68225;SDS011;55045;49.410;11.030;2023-09-30T06:45:00;8.55;;;4.47;;
68225;SDS011;55045;49.410;11.030;2023-09-30T06:48:08;5.35;;;4.30;;
68225;SDS011;55045;49.410;11.030;2023-09-30T06:51:14;7.22;;;4.38;;
68225;SDS011;55045;49.410;11.030;2023-09-30T06:54:20;7.38;;;4.72;;
68225;SDS011;55045;49.410;11.030;2023-09-30T06:57:23;6.95;;;4.55;;
68225;SDS011;55045;49.410;11.030;2023-09-30T07:00:27;6.07;;;3.95;;
68225;SDS011;55045;49.410;11.030;2023-09-30T07:03:30;8.32;;;4.00;;
68225;SDS011;55045;49.410;11.030;2023-09-30T07:06:35;6.55;;;3.70;;
68225;SDS011;55045;49.410;11.030;2023-09-30T07:09:39;4.82;;;3.60;;
68225;SDS011;55045;49.410;11.030;2023-09-30T07:12:43;4.82;;;3.80;;
68225;SDS011;55045;49.410;11.030;2023-09-30T07:15:46;6.03;;;3.80;;
68225;SDS011;55045;49.410;11.030;2023-09-30T07:18:49;7.82;;;4.00;;
68225;SDS011;55045;49.410;11.030;2023-09-30T07:21:53;5.55;;;3.42;;
68225;SDS011;55045;49.410;11.030;2023-09-30T07:25:07;7.28;;;4.00;;
68225;SDS011;55045;49.410;11.030;2023-09-30T07:28:11;8.32;;;3.42;;
68225;SDS011;55045;49.410;11.030;2023-09-30T07:31:15;7.47;;;3.50;;
68225;SDS011;55045;49.410;11.030;2023-09-30T07:34:18;5.50;;;3.85;;
68225;SDS011;55045;49.410;11.030;2023-09-30T07:37:22;7.57;;;3.50;;
68225;SDS011;55045;49.410;11.030;2023-09-30T07:40:26;6.95;;;3.97;;
68225;SDS011;55045;49.410;11.030;2023-09-30T07:43:30;6.50;;;3.88;;
68225;SDS011;55045;49.410;11.030;2023-09-30T07:46:33;7.60;;;3.65;;
68225;SDS011;55045;49.410;11.030;2023-09-30T07:49:37;6.05;;;3.78;;
68225;SDS011;55045;49.410;11.030;2023-09-30T07:52:40;7.30;;;3.90;;
68225;SDS011;55045;49.410;11.030;2023-09-30T07:55:45;5.88;;;3.47;;
68225;SDS011;55045;49.410;11.030;2023-09-30T07:58:49;7.60;;;3.88;;
68225;SDS011;55045;49.410;11.030;2023-09-30T08:01:52;6.97;;;4.00;;
68225;SDS011;55045;49.410;11.030;2023-09-30T08:04:55;6.15;;;3.90;;
68225;SDS011;55045;49.410;11.030;2023-09-30T08:07:59;7.80;;;3.28;;
68225;SDS011;55045;49.410;11.030;2023-09-30T08:11:05;6.13;;;3.50;;
68225;SDS011;55045;49.410;11.030;2023-09-30T08:14:08;7.20;;;3.53;;
68225;SDS011;55045;49.410;11.030;2023-09-30T08:17:11;7.43;;;4.30;;
68225;SDS011;55045;49.410;11.030;2023-09-30T08:20:16;5.95;;;3.67;;
68225;SDS011;55045;49.410;11.030;2023-09-30T08:23:20;9.15;;;3.83;;
68225;SDS011;55045;49.410;11.030;2023-09-30T08:26:25;10.73;;;3.67;;
68225;SDS011;55045;49.410;11.030;2023-09-30T08:29:28;7.72;;;4.30;;
68225;SDS011;55045;49.410;11.030;2023-09-30T08:32:32;6.18;;;3.88;;
68225;SDS011;55045;49.410;11.030;2023-09-30T08:35:36;8.23;;;4.28;;
68225;SDS011;55045;49.410;11.030;2023-09-30T08:38:46;5.28;;;3.70;;
68225;SDS011;55045;49.410;11.030;2023-09-30T08:41:50;7.55;;;4.18;;
68225;SDS011;55045;49.410;11.030;2023-09-30T08:44:55;6.55;;;3.85;;
68225;SDS011;55045;49.410;11.030;2023-09-30T08:47:58;9.02;;;4.10;;
68225;SDS011;55045;49.410;11.030;2023-09-30T08:51:07;9.10;;;4.13;;
68225;SDS011;55045;49.410;11.030;2023-09-30T08:54:11;9.77;;;4.50;;
68225;SDS011;55045;49.410;11.030;2023-09-30T08:57:16;7.30;;;4.43;;
68225;SDS011;55045;49.410;11.030;2023-09-30T09:00:22;9.68;;;4.65;;
68225;SDS011;55045;49.410;11.030;2023-09-30T09:03:27;9.45;;;4.05;;
68225;SDS011;55045;49.410;11.030;2023-09-30T09:06:31;6.25;;;3.70;;
68225;SDS011;55045;49.410;11.030;2023-09-30T09:09:34;6.80;;;3.90;;
68225;SDS011;55045;49.410;11.030;2023-09-30T09:12:39;7.13;;;3.55;;
68225;SDS011;55045;49.410;11.030;2023-09-30T09:15:45;7.80;;;3.73;;
68225;SDS011;55045;49.410;11.030;2023-09-30T09:18:49;7.35;;;4.00;;
68225;SDS011;55045;49.410;11.030;2023-09-30T09:21:53;6.60;;;5.28;;
68225;SDS011;55045;49.410;11.030;2023-09-30T09:24:58;8.73;;;4.10;;
68225;SDS011;55045;49.410;11.030;2023-09-30T09:28:04;7.47;;;3.78;;
68225;SDS011;55045;49.410;11.030;2023-09-30T09:34:14;6.28;;;3.60;;
68225;SDS011;55045;49.410;11.030;2023-09-30T09:37:20;8.02;;;3.25;;
68225;SDS011;55045;49.410;11.030;2023-09-30T09:40:25;4.78;;;3.22;;
68225;SDS011;55045;49.410;11.030;2023-09-30T09:43:30;5.57;;;2.95;;
68225;SDS011;55045;49.410;11.030;2023-09-30T09:46:36;6.43;;;3.05;;
68225;SDS011;55045;49.410;11.030;2023-09-30T09:49:42;5.82;;;2.80;;
68225;SDS011;55045;49.410;11.030;2023-09-30T09:52:46;10.45;;;5.93;;
68225;SDS011;55045;49.410;11.030;2023-09-30T09:55:52;12.98;;;5.78;;
68225;SDS011;55045;49.410;11.030;2023-09-30T09:58:56;8.80;;;2.83;;
68225;SDS011;55045;49.410;11.030;2023-09-30T10:02:00;5.43;;;2.70;;
68225;SDS011;55045;49.410;11.030;2023-09-30T10:05:06;8.68;;;2.88;;
68225;SDS011;55045;49.410;11.030;2023-09-30T10:08:13;5.07;;;2.90;;
68225;SDS011;55045;49.410;11.030;2023-09-30T10:11:20;7.00;;;3.10;;
68225;SDS011;55045;49.410;11.030;2023-09-30T10:14:30;5.07;;;2.80;;
68225;SDS011;55045;49.410;11.030;2023-09-30T10:21:08;5.82;;;2.90;;
68225;SDS011;55045;49.410;11.030;2023-09-30T10:27:35;6.72;;;3.80;;
68225;SDS011;55045;49.410;11.030;2023-09-30T10:37:25;7.90;;;3.30;;
68225;SDS011;55045;49.410;11.030;2023-09-30T10:40:28;7.32;;;3.08;;
68225;SDS011;55045;49.410;11.030;2023-09-30T10:43:33;5.57;;;3.30;;
68225;SDS011;55045;49.410;11.030;2023-09-30T10:46:38;9.27;;;3.42;;
68225;SDS011;55045;49.410;11.030;2023-09-30T10:49:42;5.75;;;3.60;;
68225;SDS011;55045;49.410;11.030;2023-09-30T10:52:46;7.88;;;3.40;;
68225;SDS011;55045;49.410;11.030;2023-09-30T10:55:53;7.32;;;3.30;;
68225;SDS011;55045;49.410;11.030;2023-09-30T10:58:58;8.50;;;3.85;;
68225;SDS011;55045;49.410;11.030;2023-09-30T11:02:03;7.00;;;3.17;;
68225;SDS011;55045;49.410;11.030;2023-09-30T11:05:22;7.30;;;3.50;;
68225;SDS011;55045;49.410;11.030;2023-09-30T11:08:50;7.15;;;3.55;;
68225;SDS011;55045;49.410;11.030;2023-09-30T11:11:55;6.20;;;3.70;;
68225;SDS011;55045;49.410;11.030;2023-09-30T11:14:59;6.68;;;3.55;;
68225;SDS011;55045;49.410;11.030;2023-09-30T11:18:12;7.75;;;4.10;;
68225;SDS011;55045;49.410;11.030;2023-09-30T11:21:16;8.60;;;4.32;;
68225;SDS011;55045;49.410;11.030;2023-09-30T11:24:21;7.80;;;3.95;;
68225;SDS011;55045;49.410;11.030;2023-09-30T11:27:25;7.18;;;3.53;;
68225;SDS011;55045;49.410;11.030;2023-09-30T11:30:31;11.45;;;3.75;;
68225;SDS011;55045;49.410;11.030;2023-09-30T11:33:47;7.20;;;4.00;;
68225;SDS011;55045;49.410;11.030;2023-09-30T11:36:51;7.78;;;4.18;;
68225;SDS011;55045;49.410;11.030;2023-09-30T11:39:57;24.70;;;5.03;;
68225;SDS011;55045;49.410;11.030;2023-09-30T11:43:12;17.42;;;4.00;;
68225;SDS011;55045;49.410;11.030;2023-09-30T11:46:16;7.28;;;3.65;;
68225;SDS011;55045;49.410;11.030;2023-09-30T11:49:26;6.45;;;4.10;;
68225;SDS011;55045;49.410;11.030;2023-09-30T11:52:30;10.88;;;3.83;;
68225;SDS011;55045;49.410;11.030;2023-09-30T11:55:35;6.57;;;3.30;;
68225;SDS011;55045;49.410;11.030;2023-09-30T11:58:39;7.25;;;3.15;;
68225;SDS011;55045;49.410;11.030;2023-09-30T12:01:42;8.52;;;3.90;;
68225;SDS011;55045;49.410;11.030;2023-09-30T12:04:52;8.05;;;3.55;;
68225;SDS011;55045;49.410;11.030;2023-09-30T12:07:55;13.15;;;4.10;;
68225;SDS011;55045;49.410;11.030;2023-09-30T12:11:00;10.48;;;3.53;;
68225;SDS011;55045;49.410;11.030;2023-09-30T12:14:03;6.45;;;3.92;;
68225;SDS011;55045;49.410;11.030;2023-09-30T12:17:08;6.35;;;3.42;;
68225;SDS011;55045;49.410;11.030;2023-09-30T12:20:14;6.00;;;3.50;;
68225;SDS011;55045;49.410;11.030;2023-09-30T12:23:19;7.10;;;3.28;;
68225;SDS011;55045;49.410;11.030;2023-09-30T12:26:24;8.05;;;3.70;;
68225;SDS011;55045;49.410;11.030;2023-09-30T12:29:28;6.15;;;3.40;;
68225;SDS011;55045;49.410;11.030;2023-09-30T12:32:31;9.43;;;3.97;;
68225;SDS011;55045;49.410;11.030;2023-09-30T12:35:34;6.78;;;2.83;;
68225;SDS011;55045;49.410;11.030;2023-09-30T12:38:38;9.68;;;3.50;;
68225;SDS011;55045;49.410;11.030;2023-09-30T12:41:48;8.63;;;4.00;;
68225;SDS011;55045;49.410;11.030;2023-09-30T12:44:52;4.90;;;3.10;;
68225;SDS011;55045;49.410;11.030;2023-09-30T12:47:55;9.07;;;3.70;;
68225;SDS011;55045;49.410;11.030;2023-09-30T12:51:01;5.70;;;3.55;;
68225;SDS011;55045;49.410;11.030;2023-09-30T12:54:06;8.95;;;3.55;;
68225;SDS011;55045;49.410;11.030;2023-09-30T12:57:12;8.40;;;3.58;;
68225;SDS011;55045;49.410;11.030;2023-09-30T13:00:19;8.93;;;3.67;;
68225;SDS011;55045;49.410;11.030;2023-09-30T13:03:23;8.73;;;3.75;;
68225;SDS011;55045;49.410;11.030;2023-09-30T13:06:27;6.38;;;3.88;;
68225;SDS011;55045;49.410;11.030;2023-09-30T13:09:32;8.57;;;4.03;;
68225;SDS011;55045;49.410;11.030;2023-09-30T13:12:36;15.25;;;4.30;;
68225;SDS011;55045;49.410;11.030;2023-09-30T13:15:40;7.65;;;3.50;;
68225;SDS011;55045;49.410;11.030;2023-09-30T13:18:43;8.60;;;4.05;;
68225;SDS011;55045;49.410;11.030;2023-09-30T13:21:46;9.45;;;4.13;;
68225;SDS011;55045;49.410;11.030;2023-09-30T13:24:50;6.82;;;4.50;;
68225;SDS011;55045;49.410;11.030;2023-09-30T13:27:56;7.70;;;3.85;;
68225;SDS011;55045;49.410;11.030;2023-09-30T13:30:59;8.05;;;4.20;;
68225;SDS011;55045;49.410;11.030;2023-09-30T13:34:03;8.32;;;4.25;;
68225;SDS011;55045;49.410;11.030;2023-09-30T13:37:06;5.95;;;3.90;;
68225;SDS011;55045;49.410;11.030;2023-09-30T13:40:10;9.68;;;3.60;;
68225;SDS011;55045;49.410;11.030;2023-09-30T13:43:16;8.95;;;3.83;;
68225;SDS011;55045;49.410;11.030;2023-09-30T13:46:19;8.55;;;3.72;;
68225;SDS011;55045;49.410;11.030;2023-09-30T13:49:26;8.77;;;4.10;;
68225;SDS011;55045;49.410;11.030;2023-09-30T13:52:29;12.27;;;4.60;;
68225;SDS011;55045;49.410;11.030;2023-09-30T13:55:37;38.58;;;6.63;;
68225;SDS011;55045;49.410;11.030;2023-09-30T13:58:42;10.68;;;4.05;;
68225;SDS011;55045;49.410;11.030;2023-09-30T14:01:46;7.20;;;4.13;;
68225;SDS011;55045;49.410;11.030;2023-09-30T14:04:49;11.73;;;4.80;;
68225;SDS011;55045;49.410;11.030;2023-09-30T14:07:55;7.35;;;4.28;;
68225;SDS011;55045;49.410;11.030;2023-09-30T14:10:59;8.40;;;4.20;;
68225;SDS011;55045;49.410;11.030;2023-09-30T14:14:04;6.80;;;4.15;;
68225;SDS011;55045;49.410;11.030;2023-09-30T14:17:07;9.82;;;4.68;;
68225;SDS011;55045;49.410;11.030;2023-09-30T14:20:12;7.95;;;3.97;;
68225;SDS011;55045;49.410;11.030;2023-09-30T14:23:15;49.85;;;6.13;;
68225;SDS011;55045;49.410;11.030;2023-09-30T14:26:19;8.15;;;3.97;;
68225;SDS011;55045;49.410;11.030;2023-09-30T14:29:24;9.65;;;5.05;;
68225;SDS011;55045;49.410;11.030;2023-09-30T14:32:27;9.80;;;4.75;;
68225;SDS011;55045;49.410;11.030;2023-09-30T14:35:32;12.07;;;4.57;;
68225;SDS011;55045;49.410;11.030;2023-09-30T14:38:35;7.40;;;3.95;;
68225;SDS011;55045;49.410;11.030;2023-09-30T14:41:39;10.43;;;4.78;;
68225;SDS011;55045;49.410;11.030;2023-09-30T14:44:44;11.38;;;4.53;;
68225;SDS011;55045;49.410;11.030;2023-09-30T14:47:47;9.02;;;4.80;;
68225;SDS011;55045;49.410;11.030;2023-09-30T14:50:51;23.98;;;5.80;;
68225;SDS011;55045;49.410;11.030;2023-09-30T14:53:54;44.92;;;6.45;;
68225;SDS011;55045;49.410;11.030;2023-09-30T14:56:57;12.02;;;4.45;;
68225;SDS011;55045;49.410;11.030;2023-09-30T15:00:02;9.43;;;4.40;;
68225;SDS011;55045;49.410;11.030;2023-09-30T15:03:08;12.07;;;5.03;;
68225;SDS011;55045;49.410;11.030;2023-09-30T15:06:12;7.45;;;4.30;;
68225;SDS011;55045;49.410;11.030;2023-09-30T15:09:16;10.23;;;4.82;;
68225;SDS011;55045;49.410;11.030;2023-09-30T15:12:19;8.70;;;4.68;;
68225;SDS011;55045;49.410;11.030;2023-09-30T15:15:24;9.73;;;4.45;;
68225;SDS011;55045;49.410;11.030;2023-09-30T15:18:27;9.50;;;4.60;;
68225;SDS011;55045;49.410;11.030;2023-09-30T15:21:30;9.15;;;4.25;;
68225;SDS011;55045;49.410;11.030;2023-09-30T15:24:34;8.65;;;4.30;;
68225;SDS011;55045;49.410;11.030;2023-09-30T15:27:38;7.53;;;4.32;;
68225;SDS011;55045;49.410;11.030;2023-09-30T15:34:09;11.23;;;4.65;;
68225;SDS011;55045;49.410;11.030;2023-09-30T15:37:13;11.32;;;4.85;;
68225;SDS011;55045;49.410;11.030;2023-09-30T15:40:16;13.80;;;5.15;;
68225;SDS011;55045;49.410;11.030;2023-09-30T15:43:20;8.10;;;4.35;;
68225;SDS011;55045;49.410;11.030;2023-09-30T15:46:24;11.38;;;5.00;;
68225;SDS011;55045;49.410;11.030;2023-09-30T15:49:29;9.77;;;5.10;;
68225;SDS011;55045;49.410;11.030;2023-09-30T15:52:32;8.65;;;4.82;;
68225;SDS011;55045;49.410;11.030;2023-09-30T15:55:37;8.20;;;4.30;;
68225;SDS011;55045;49.410;11.030;2023-09-30T15:58:41;11.82;;;5.32;;
68225;SDS011;55045;49.410;11.030;2023-09-30T16:01:44;8.25;;;4.95;;
68225;SDS011;55045;49.410;11.030;2023-09-30T16:04:49;18.08;;;5.28;;
68225;SDS011;55045;49.410;11.030;2023-09-30T16:07:55;9.70;;;4.88;;
68225;SDS011;55045;49.410;11.030;2023-09-30T16:10:58;10.40;;;5.57;;
68225;SDS011;55045;49.410;11.030;2023-09-30T16:14:01;11.02;;;5.07;;
68225;SDS011;55045;49.410;11.030;2023-09-30T16:17:05;11.30;;;5.10;;
68225;SDS011;55045;49.410;11.030;2023-09-30T16:20:10;10.40;;;5.15;;
68225;SDS011;55045;49.410;11.030;2023-09-30T16:23:14;8.95;;;4.53;;
68225;SDS011;55045;49.410;11.030;2023-09-30T16:26:17;9.90;;;5.47;;
68225;SDS011;55045;49.410;11.030;2023-09-30T16:29:20;13.55;;;5.55;;
68225;SDS011;55045;49.410;11.030;2023-09-30T16:32:24;12.90;;;5.97;;
68225;SDS011;55045;49.410;11.030;2023-09-30T16:35:29;11.10;;;6.22;;
68225;SDS011;55045;49.410;11.030;2023-09-30T16:38:32;12.40;;;5.97;;
68225;SDS011;55045;49.410;11.030;2023-09-30T16:41:35;13.63;;;5.65;;
68225;SDS011;55045;49.410;11.030;2023-09-30T16:44:40;11.40;;;5.68;;
68225;SDS011;55045;49.410;11.030;2023-09-30T16:47:43;11.52;;;5.70;;
68225;SDS011;55045;49.410;11.030;2023-09-30T16:50:48;12.40;;;6.70;;
68225;SDS011;55045;49.410;11.030;2023-09-30T16:53:51;13.93;;;5.95;;
68225;SDS011;55045;49.410;11.030;2023-09-30T16:56:55;12.93;;;6.45;;
68225;SDS011;55045;49.410;11.030;2023-09-30T16:59:59;9.82;;;6.13;;
68225;SDS011;55045;49.410;11.030;2023-09-30T17:03:05;14.20;;;6.90;;
68225;SDS011;55045;49.410;11.030;2023-09-30T17:06:10;14.13;;;6.05;;
68225;SDS011;55045;49.410;11.030;2023-09-30T17:09:13;15.85;;;6.95;;
68225;SDS011;55045;49.410;11.030;2023-09-30T17:12:16;17.73;;;7.28;;
68225;SDS011;55045;49.410;11.030;2023-09-30T17:15:20;14.43;;;6.90;;
68225;SDS011;55045;49.410;11.030;2023-09-30T17:18:23;11.63;;;6.63;;
68225;SDS011;55045;49.410;11.030;2023-09-30T17:21:27;14.73;;;7.40;;
68225;SDS011;55045;49.410;11.030;2023-09-30T17:24:31;13.65;;;6.97;;
68225;SDS011;55045;49.410;11.030;2023-09-30T17:27:37;12.77;;;6.65;;
68225;SDS011;55045;49.410;11.030;2023-09-30T17:30:43;14.40;;;7.30;;
68225;SDS011;55045;49.410;11.030;2023-09-30T17:33:47;12.43;;;7.75;;
68225;SDS011;55045;49.410;11.030;2023-09-30T17:36:51;14.23;;;7.85;;
68225;SDS011;55045;49.410;11.030;2023-09-30T17:39:55;18.17;;;8.18;;
68225;SDS011;55045;49.410;11.030;2023-09-30T17:42:58;12.30;;;7.45;;
68225;SDS011;55045;49.410;11.030;2023-09-30T17:46:06;12.75;;;7.68;;
68225;SDS011;55045;49.410;11.030;2023-09-30T17:49:11;15.50;;;7.88;;
68225;SDS011;55045;49.410;11.030;2023-09-30T17:52:15;15.23;;;7.85;;
68225;SDS011;55045;49.410;11.030;2023-09-30T17:55:19;19.13;;;8.07;;
68225;SDS011;55045;49.410;11.030;2023-09-30T17:58:22;13.60;;;8.43;;
68225;SDS011;55045;49.410;11.030;2023-09-30T18:01:25;13.35;;;8.07;;
68225;SDS011;55045;49.410;11.030;2023-09-30T18:04:29;16.92;;;7.75;;
68225;SDS011;55045;49.410;11.030;2023-09-30T18:07:34;14.63;;;8.63;;
68225;SDS011;55045;49.410;11.030;2023-09-30T18:10:37;15.98;;;10.88;;
68225;SDS011;55045;49.410;11.030;2023-09-30T18:13:43;18.25;;;11.55;;
68225;SDS011;55045;49.410;11.030;2023-09-30T18:16:46;19.58;;;12.63;;
68225;SDS011;55045;49.410;11.030;2023-09-30T18:19:50;23.35;;;13.73;;
68225;SDS011;55045;49.410;11.030;2023-09-30T18:22:55;17.42;;;10.82;;
68225;SDS011;55045;49.410;11.030;2023-09-30T18:25:58;19.92;;;10.80;;
68225;SDS011;55045;49.410;11.030;2023-09-30T18:29:01;15.52;;;10.27;;
68225;SDS011;55045;49.410;11.030;2023-09-30T18:32:05;16.80;;;10.38;;
68225;SDS011;55045;49.410;11.030;2023-09-30T18:35:08;19.92;;;10.73;;